Time;durP1;ratioP1;P1;durP2;ratioP2;P2;SDS_P1;SDS_P2;PMS_P1;PMS_P2;Temp;Humidity;BMP_temperature;BMP_pressure;BME280_temperature;BME280_humidity;BME280_pressure;Samples;Min_cycle;Max_cycle;Signal;HPM_P1;HPM_P2
2021/11/26 00:01:42;;;;;;;39.90;20.10;;;3.40;99.90;;;;;;4424659;32;20174;-64
2021/11/26 00:04:10;;;;;;;42.63;20.00;;;3.30;99.90;;;;;;4424192;32;20213;-64
2021/11/26 00:06:37;;;;;;;43.17;20.13;;;3.40;99.90;;;;;;4425985;32;20575;-64
2021/11/26 00:09:04;;;;;;;40.87;20.10;;;3.40;99.90;;;;;;4425164;32;20178;-64
2021/11/26 00:11:31;;;;;;;42.80;20.27;;;3.40;99.90;;;;;;4426001;32;20509;-64
2021/11/26 00:14:21;;;;;;;41.73;19.63;;;3.40;99.90;;;;;;4424719;32;20186;-64
2021/11/26 00:16:54;;;;;;;41.97;20.10;;;3.40;99.90;;;;;;4425450;32;20441;-64
2021/11/26 00:19:22;;;;;;;39.33;20.03;;;3.40;99.90;;;;;;4424803;32;20245;-64
2021/11/26 00:21:49;;;;;;;40.37;19.37;;;3.40;99.90;;;;;;4425781;32;20197;-64
2021/11/26 00:24:17;;;;;;;36.00;17.97;;;3.40;99.90;;;;;;4425185;32;20299;-64
2021/11/26 00:26:46;;;;;;;39.53;18.90;;;3.40;99.90;;;;;;4425019;32;20178;-64
2021/11/26 00:29:13;;;;;;;41.93;20.23;;;3.40;99.90;;;;;;4424036;32;20588;-63
2021/11/26 00:31:41;;;;;;;41.90;20.40;;;3.40;99.90;;;;;;4425978;32;20448;-63
2021/11/26 00:34:09;;;;;;;40.83;20.20;;;3.40;99.90;;;;;;4425870;32;20171;-64
2021/11/26 00:36:36;;;;;;;41.37;19.43;;;3.40;99.90;;;;;;4425059;32;20186;-64
2021/11/26 00:39:05;;;;;;;45.53;21.07;;;3.40;99.90;;;;;;4424528;32;20179;-64
2021/11/26 00:41:33;;;;;;;42.10;20.07;;;3.40;99.90;;;;;;4425196;32;20236;-64
2021/11/26 00:44:00;;;;;;;43.70;21.20;;;3.40;99.90;;;;;;4424057;32;20490;-64
2021/11/26 00:46:27;;;;;;;44.73;20.37;;;3.40;99.90;;;;;;4423448;32;20559;-64
2021/11/26 00:48:54;;;;;;;41.63;19.73;;;3.40;99.90;;;;;;4426358;32;20444;-64
2021/11/26 00:51:21;;;;;;;42.87;20.57;;;3.40;99.90;;;;;;4424016;32;20196;-64
2021/11/26 00:53:48;;;;;;;43.40;20.87;;;3.40;99.90;;;;;;4423841;32;20182;-64
2021/11/26 00:56:15;;;;;;;43.33;21.37;;;3.40;99.90;;;;;;4425072;32;20178;-64
2021/11/26 00:58:42;;;;;;;41.10;20.33;;;3.40;99.90;;;;;;4424947;32;20240;-64
2021/11/26 01:01:10;;;;;;;41.57;20.03;;;3.40;99.90;;;;;;4425962;32;20146;-64
2021/11/26 01:03:37;;;;;;;43.77;20.40;;;3.40;99.90;;;;;;4424367;32;20193;-64
2021/11/26 01:06:04;;;;;;;42.43;20.63;;;3.40;99.90;;;;;;4424583;32;20535;-64
2021/11/26 01:08:31;;;;;;;43.63;20.77;;;3.40;99.90;;;;;;4425084;32;20186;-64
2021/11/26 01:10:58;;;;;;;46.17;21.33;;;3.40;99.90;;;;;;4424030;32;20179;-64
2021/11/26 01:13:26;;;;;;;44.00;21.23;;;3.30;99.90;;;;;;4426041;32;20546;-64
2021/11/26 01:15:53;;;;;;;42.60;20.97;;;3.40;99.90;;;;;;4424306;32;20183;-64
2021/11/26 01:18:21;;;;;;;40.90;20.47;;;3.30;99.90;;;;;;4424626;32;20250;-64
2021/11/26 01:20:48;;;;;;;44.07;20.53;;;3.40;99.90;;;;;;4423620;32;20198;-64
2021/11/26 01:23:15;;;;;;;42.53;21.17;;;3.40;99.90;;;;;;4423682;32;20167;-64
2021/11/26 01:25:42;;;;;;;41.73;21.00;;;3.40;99.90;;;;;;4423375;32;20225;-63
2021/11/26 01:28:10;;;;;;;40.50;20.00;;;3.30;99.90;;;;;;4423084;32;20228;-64
2021/11/26 01:30:49;;;;;;;43.37;20.43;;;3.40;99.90;;;;;;4424384;32;20256;-64
2021/11/26 01:33:19;;;;;;;43.40;21.13;;;3.40;99.90;;;;;;4424560;32;20446;-63
2021/11/26 01:35:50;;;;;;;44.10;20.23;;;3.40;99.90;;;;;;4423409;32;20187;-63
2021/11/26 01:38:18;;;;;;;44.30;20.60;;;3.40;99.90;;;;;;4423779;32;20214;-63
2021/11/26 01:40:46;;;;;;;46.50;22.00;;;3.40;99.90;;;;;;4423830;32;20167;-64
2021/11/26 01:43:15;;;;;;;45.53;21.10;;;3.40;99.90;;;;;;4422809;32;20182;-63
2021/11/26 01:45:46;;;;;;;39.27;20.00;;;3.40;99.90;;;;;;4423125;32;20186;-64
2021/11/26 01:48:13;;;;;;;39.07;19.87;;;3.40;99.90;;;;;;4423674;32;20174;-63
2021/11/26 01:50:41;;;;;;;41.30;20.77;;;3.40;99.90;;;;;;4423152;32;20215;-64
2021/11/26 01:53:08;;;;;;;42.60;21.30;;;3.40;99.90;;;;;;4425683;32;20182;-65
2021/11/26 01:55:35;;;;;;;41.97;20.97;;;3.30;99.90;;;;;;4425717;32;20159;-64
2021/11/26 01:58:02;;;;;;;41.77;20.70;;;3.40;99.90;;;;;;4423331;32;20415;-64
2021/11/26 02:00:32;;;;;;;43.93;21.37;;;3.40;99.90;;;;;;4424359;32;20175;-64
2021/11/26 02:03:02;;;;;;;42.37;20.87;;;3.40;99.90;;;;;;4424509;32;20182;-64
2021/11/26 02:05:29;;;;;;;43.27;20.80;;;3.40;99.90;;;;;;4423369;32;20182;-63
2021/11/26 02:07:56;;;;;;;43.70;20.40;;;3.40;99.90;;;;;;4423036;32;20175;-63
2021/11/26 02:10:23;;;;;;;43.43;20.50;;;3.40;99.90;;;;;;4424597;32;20217;-64
2021/11/26 02:12:50;;;;;;;40.50;20.33;;;3.40;99.90;;;;;;4422264;32;20179;-64
2021/11/26 02:15:22;;;;;;;49.17;21.63;;;3.40;99.90;;;;;;4423344;32;20206;-64
2021/11/26 02:17:51;;;;;;;44.50;20.93;;;3.30;99.90;;;;;;4421937;32;20232;-63
2021/11/26 02:20:21;;;;;;;43.77;21.73;;;3.30;99.90;;;;;;4423390;32;20232;-63
2021/11/26 02:22:50;;;;;;;43.23;21.03;;;3.40;99.90;;;;;;4422209;32;20224;-64
2021/11/26 02:25:17;;;;;;;44.60;21.93;;;3.40;99.90;;;;;;4424152;32;20190;-64
2021/11/26 02:27:45;;;;;;;45.77;22.13;;;3.40;99.90;;;;;;4422213;32;20335;-64
2021/11/26 02:30:14;;;;;;;44.83;21.00;;;3.30;99.90;;;;;;4425059;32;20241;-64
2021/11/26 02:32:43;;;;;;;46.43;22.03;;;3.30;99.90;;;;;;4438794;32;20598;-64
2021/11/26 02:35:11;;;;;;;45.77;21.80;;;3.30;99.90;;;;;;4437381;32;20182;-64
2021/11/26 02:37:41;;;;;;;44.17;21.63;;;3.30;99.90;;;;;;4439670;32;20217;-64
2021/11/26 02:40:10;;;;;;;46.67;22.17;;;3.30;99.90;;;;;;4438810;32;20577;-63
2021/11/26 02:42:38;;;;;;;44.27;20.87;;;3.30;99.90;;;;;;4437623;32;20241;-63
2021/11/26 02:45:10;;;;;;;46.53;22.10;;;3.30;99.90;;;;;;4440495;32;20150;-64
2021/11/26 02:47:38;;;;;;;47.90;23.17;;;3.30;99.90;;;;;;4438238;32;20446;-64
2021/11/26 02:50:07;;;;;;;43.03;21.33;;;3.30;99.90;;;;;;4437480;32;20183;-63
2021/11/26 02:52:35;;;;;;;42.57;21.60;;;3.30;99.90;;;;;;4437370;32;20175;-64
2021/11/26 02:55:05;;;;;;;45.47;22.30;;;3.30;99.90;;;;;;4439158;32;20261;-64
2021/11/26 02:57:32;;;;;;;49.53;22.70;;;3.30;99.90;;;;;;4439615;32;20178;-63
2021/11/26 02:59:59;;;;;;;44.80;21.57;;;3.20;99.90;;;;;;4438374;32;20221;-64
2021/11/26 03:02:26;;;;;;;51.57;23.20;;;3.20;99.90;;;;;;4437442;32;20430;-64
2021/11/26 03:04:53;;;;;;;44.87;21.77;;;3.20;99.90;;;;;;4438728;32;20233;-64
2021/11/26 03:07:20;;;;;;;49.17;22.77;;;3.20;99.90;;;;;;4438429;32;20174;-63
2021/11/26 03:09:47;;;;;;;45.10;22.37;;;3.20;99.90;;;;;;4437905;32;20224;-63
2021/11/26 03:12:15;;;;;;;48.23;23.63;;;3.20;99.90;;;;;;4437323;32;20193;-64
2021/11/26 03:14:42;;;;;;;49.63;23.00;;;3.20;99.90;;;;;;4439241;32;20186;-63
2021/11/26 03:17:09;;;;;;;46.20;22.70;;;3.20;99.90;;;;;;4437863;32;20182;-63
2021/11/26 03:19:37;;;;;;;48.93;23.20;;;3.10;99.90;;;;;;4437770;32;20174;-63
2021/11/26 03:22:04;;;;;;;49.17;22.67;;;3.10;99.90;;;;;;4438083;32;20174;-64
2021/11/26 03:24:31;;;;;;;47.30;22.83;;;3.10;99.90;;;;;;4438595;32;20216;-63
2021/11/26 03:26:58;;;;;;;48.83;23.53;;;3.10;99.90;;;;;;4437709;32;20272;-63
2021/11/26 03:29:25;;;;;;;52.00;23.30;;;3.10;99.90;;;;;;4437773;32;20196;-63
2021/11/26 03:31:52;;;;;;;50.03;23.23;;;3.20;99.90;;;;;;4439113;32;20197;-64
2021/11/26 03:34:19;;;;;;;52.73;24.07;;;3.10;99.90;;;;;;4439848;32;20492;-63
2021/11/26 03:36:46;;;;;;;51.03;23.73;;;3.10;99.90;;;;;;4441822;32;20238;-64
2021/11/26 03:39:13;;;;;;;49.57;22.90;;;3.20;99.90;;;;;;4440399;32;20204;-64
2021/11/26 03:41:40;;;;;;;47.40;22.77;;;3.20;99.90;;;;;;4441807;32;20230;-64
2021/11/26 03:44:08;;;;;;;46.43;22.40;;;3.20;99.90;;;;;;4440730;32;20186;-63
2021/11/26 03:46:35;;;;;;;48.07;22.47;;;3.20;99.90;;;;;;4441210;32;20169;-63
2021/11/26 03:49:02;;;;;;;48.13;23.43;;;3.20;99.90;;;;;;4441994;32;20189;-63
2021/11/26 03:51:29;;;;;;;48.60;22.70;;;3.10;99.90;;;;;;4440735;32;20182;-63
2021/11/26 03:53:56;;;;;;;49.27;22.80;;;3.10;99.90;;;;;;4439802;32;20205;-64
2021/11/26 03:56:23;;;;;;;45.70;22.40;;;3.10;99.90;;;;;;4440666;32;20214;-64
2021/11/26 03:58:50;;;;;;;45.70;21.77;;;3.10;99.90;;;;;;4441419;32;20182;-64
2021/11/26 04:01:17;;;;;;;49.43;22.63;;;3.10;99.90;;;;;;4441085;32;20186;-63
2021/11/26 04:03:44;;;;;;;48.07;23.13;;;3.10;99.90;;;;;;4440289;32;20229;-64
2021/11/26 04:06:11;;;;;;;45.37;21.80;;;3.20;99.90;;;;;;4441217;32;20182;-64
2021/11/26 04:08:38;;;;;;;45.47;23.07;;;3.20;99.90;;;;;;4441025;32;20483;-63
2021/11/26 04:11:05;;;;;;;48.17;21.93;;;3.20;99.90;;;;;;4441909;32;20148;-63
2021/11/26 04:13:32;;;;;;;45.40;22.50;;;3.20;99.90;;;;;;4440810;32;20201;-63
2021/11/26 04:16:05;;;;;;;46.60;22.53;;;3.20;99.90;;;;;;4442405;32;20181;-64
2021/11/26 04:18:34;;;;;;;49.30;22.37;;;3.20;99.90;;;;;;4441334;32;20402;-64
2021/11/26 04:21:03;;;;;;;42.97;21.73;;;3.20;99.90;;;;;;4441366;32;20239;-64
2021/11/26 04:23:31;;;;;;;47.50;22.90;;;3.20;99.90;;;;;;4440059;32;20179;-63
2021/11/26 04:25:58;;;;;;;44.47;22.10;;;3.20;99.90;;;;;;4441231;32;20375;-64
2021/11/26 04:28:25;;;;;;;45.83;22.50;;;3.20;99.90;;;;;;4441179;32;20196;-63
2021/11/26 04:30:52;;;;;;;46.13;22.30;;;3.20;99.90;;;;;;4441066;32;20551;-63
2021/11/26 04:33:19;;;;;;;45.10;22.13;;;3.20;99.90;;;;;;4440742;32;20225;-63
2021/11/26 04:35:48;;;;;;;48.53;22.13;;;3.20;99.90;;;;;;4440769;32;20205;-64
2021/11/26 04:38:17;;;;;;;52.80;23.77;;;3.10;99.90;;;;;;4442014;32;20158;-63
2021/11/26 04:40:44;;;;;;;43.93;21.43;;;3.10;99.90;;;;;;4439295;32;20528;-63
2021/11/26 04:43:14;;;;;;;50.17;22.70;;;3.10;99.90;;;;;;4441405;32;20193;-63
2021/11/26 04:45:41;;;;;;;48.20;23.13;;;3.20;99.90;;;;;;4439220;32;20193;-64
2021/11/26 04:48:08;;;;;;;45.87;21.10;;;3.20;99.90;;;;;;4441377;32;20186;-64
2021/11/26 04:50:35;;;;;;;46.47;21.93;;;3.20;99.90;;;;;;4441181;32;20390;-64
2021/11/26 04:53:02;;;;;;;47.13;22.77;;;3.20;99.90;;;;;;4440859;32;20166;-63
2021/11/26 04:55:29;;;;;;;46.63;22.40;;;3.20;99.90;;;;;;4438994;32;20190;-63
2021/11/26 04:57:56;;;;;;;43.53;21.30;;;3.20;99.90;;;;;;4440132;32;20174;-63
2021/11/26 05:00:23;;;;;;;45.57;21.90;;;3.20;99.90;;;;;;4439363;32;20237;-63
2021/11/26 05:02:51;;;;;;;49.10;22.43;;;3.20;99.90;;;;;;4439880;32;20208;-64
2021/11/26 05:05:18;;;;;;;45.73;21.27;;;3.30;99.90;;;;;;4440690;32;20171;-64
2021/11/26 05:07:46;;;;;;;47.43;21.97;;;3.30;99.90;;;;;;4440717;32;20166;-64
2021/11/26 05:10:14;;;;;;;48.90;21.90;;;3.30;99.90;;;;;;4440227;32;20198;-63
2021/11/26 05:15:37;;;;;;;46.87;21.57;;;3.20;99.90;;;;;;4409966;32;20266;-63
2021/11/26 05:18:05;;;;;;;45.97;21.97;;;3.20;99.90;;;;;;4422988;32;20174;-63
2021/11/26 05:20:33;;;;;;;44.57;21.33;;;3.30;99.90;;;;;;4424280;32;20377;-64
2021/11/26 05:23:01;;;;;;;47.57;21.97;;;3.30;99.90;;;;;;4422137;32;20183;-64
2021/11/26 05:25:29;;;;;;;47.73;22.10;;;3.30;99.90;;;;;;4421816;32;20201;-63
2021/11/26 05:27:56;;;;;;;46.20;22.17;;;3.30;99.90;;;;;;4423263;32;20197;-63
2021/11/26 05:30:23;;;;;;;46.47;22.43;;;3.30;99.90;;;;;;4424616;32;20166;-64
2021/11/26 05:32:50;;;;;;;48.23;22.07;;;3.30;99.90;;;;;;4423398;32;20256;-64
2021/11/26 05:35:18;;;;;;;43.70;22.10;;;3.30;99.90;;;;;;4423982;32;20248;-64
2021/11/26 05:37:47;;;;;;;46.07;21.67;;;3.30;99.90;;;;;;4423459;32;20463;-63
2021/11/26 05:40:15;;;;;;;49.10;22.53;;;3.30;99.90;;;;;;4423338;32;20386;-64
2021/11/26 05:42:43;;;;;;;46.20;21.93;;;3.30;99.90;;;;;;4422090;32;20232;-63
2021/11/26 05:45:11;;;;;;;46.07;22.10;;;3.30;99.90;;;;;;4423838;32;20175;-64
2021/11/26 05:47:39;;;;;;;48.27;22.97;;;3.30;99.90;;;;;;4423484;32;20298;-64
2021/11/26 05:50:08;;;;;;;47.20;23.03;;;3.30;99.90;;;;;;4422752;32;20195;-64
2021/11/26 05:52:36;;;;;;;48.63;22.33;;;3.30;99.90;;;;;;4434290;32;20173;-64
2021/11/26 05:55:06;;;;;;;45.93;21.87;;;3.20;99.90;;;;;;4439231;32;20187;-63
2021/11/26 05:57:34;;;;;;;45.07;21.63;;;3.20;99.90;;;;;;4438900;32;20496;-64
2021/11/26 06:00:02;;;;;;;47.80;22.00;;;3.20;99.90;;;;;;4438501;32;20178;-64
2021/11/26 06:02:29;;;;;;;45.07;22.27;;;3.20;99.90;;;;;;4438074;32;20236;-64
2021/11/26 06:04:56;;;;;;;49.60;22.53;;;3.20;99.90;;;;;;4439591;32;20202;-64
2021/11/26 06:07:23;;;;;;;48.93;22.80;;;3.20;99.90;;;;;;4437866;32;20430;-63
2021/11/26 06:09:50;;;;;;;46.90;23.57;;;3.20;99.90;;;;;;4440010;32;20434;-64
2021/11/26 06:12:17;;;;;;;47.57;23.07;;;3.20;99.90;;;;;;4438845;32;20170;-64
2021/11/26 06:14:44;;;;;;;44.00;21.93;;;3.20;99.90;;;;;;4437533;32;20178;-64
2021/11/26 06:17:11;;;;;;;49.10;22.70;;;3.20;99.90;;;;;;4438227;32;20256;-64
2021/11/26 06:19:38;;;;;;;46.27;21.53;;;3.20;99.90;;;;;;4439270;32;20221;-64
2021/11/26 06:22:05;;;;;;;47.07;22.93;;;3.20;99.90;;;;;;4440619;32;20154;-63
2021/11/26 06:24:32;;;;;;;45.80;22.53;;;3.20;99.90;;;;;;4437041;32;20207;-64
2021/11/26 06:26:59;;;;;;;47.07;22.20;;;3.30;99.90;;;;;;4437699;32;20177;-64
2021/11/26 06:29:26;;;;;;;47.00;22.27;;;3.30;99.90;;;;;;4439399;32;20143;-64
2021/11/26 06:31:53;;;;;;;45.40;21.33;;;3.30;99.90;;;;;;4440525;32;20448;-64
2021/11/26 06:34:21;;;;;;;50.10;22.50;;;3.30;99.90;;;;;;4439189;32;20146;-63
2021/11/26 06:36:49;;;;;;;43.33;21.73;;;3.30;99.90;;;;;;4437450;32;20653;-64
2021/11/26 06:39:16;;;;;;;43.87;21.83;;;3.30;99.90;;;;;;4437411;32;20242;-64
2021/11/26 06:41:43;;;;;;;48.20;23.10;;;3.30;99.90;;;;;;4437676;32;20193;-64
2021/11/26 06:44:10;;;;;;;49.67;22.73;;;3.30;99.90;;;;;;4438447;32;20179;-64
2021/11/26 06:46:37;;;;;;;48.17;22.90;;;3.30;99.90;;;;;;4437993;32;20169;-63
2021/11/26 06:49:04;;;;;;;45.03;22.40;;;3.30;99.90;;;;;;4439178;32;20190;-64
2021/11/26 06:51:31;;;;;;;44.37;21.67;;;3.40;99.90;;;;;;4439312;32;20393;-64
2021/11/26 06:53:59;;;;;;;47.57;21.63;;;3.40;99.90;;;;;;4439345;32;20186;-64
2021/11/26 06:56:26;;;;;;;49.17;22.47;;;3.40;99.90;;;;;;4439552;32;20181;-64
2021/11/26 06:58:57;;;;;;;46.13;22.43;;;3.40;99.90;;;;;;4437126;32;20186;-64
2021/11/26 07:01:24;;;;;;;43.83;21.17;;;3.40;99.90;;;;;;4437256;32;20174;-64
2021/11/26 07:03:52;;;;;;;48.17;22.07;;;3.40;99.90;;;;;;4437168;32;20193;-64
2021/11/26 07:06:20;;;;;;;44.40;21.57;;;3.40;99.90;;;;;;4439130;32;20413;-64
2021/11/26 07:08:48;;;;;;;44.57;21.43;;;3.40;99.90;;;;;;4437807;32;20163;-64
2021/11/26 07:11:15;;;;;;;48.57;22.13;;;3.40;99.90;;;;;;4438306;32;20313;-64
2021/11/26 07:13:45;;;;;;;44.73;22.10;;;3.50;99.90;;;;;;4438230;32;20186;-64
2021/11/26 07:16:12;;;;;;;46.27;22.73;;;3.50;99.90;;;;;;4437633;32;20200;-64
2021/11/26 07:18:39;;;;;;;50.07;22.57;;;3.40;99.90;;;;;;4437954;32;20322;-64
2021/11/26 07:21:06;;;;;;;48.87;22.30;;;3.50;99.90;;;;;;4439855;32;20197;-64
2021/11/26 07:23:33;;;;;;;45.97;22.27;;;3.50;99.90;;;;;;4436938;32;20178;-64
2021/11/26 07:26:00;;;;;;;45.73;21.93;;;3.50;99.90;;;;;;4438564;32;20169;-64
2021/11/26 07:28:27;;;;;;;47.67;22.70;;;3.50;99.90;;;;;;4436980;32;20171;-64
2021/11/26 07:30:56;;;;;;;48.63;22.27;;;3.50;99.90;;;;;;4437502;32;20214;-64
2021/11/26 07:33:23;;;;;;;47.23;22.70;;;3.50;99.90;;;;;;4438183;32;20193;-64
2021/11/26 07:35:50;;;;;;;48.10;21.83;;;3.60;99.90;;;;;;4438177;32;20178;-64
2021/11/26 07:38:17;;;;;;;48.27;23.07;;;3.60;99.90;;;;;;4437909;32;20174;-64
2021/11/26 07:40:45;;;;;;;46.20;22.67;;;3.60;99.90;;;;;;4437887;32;20212;-64
2021/11/26 07:43:12;;;;;;;47.50;23.20;;;3.60;99.90;;;;;;4436535;32;20274;-64
2021/11/26 07:45:39;;;;;;;46.60;22.10;;;3.60;99.90;;;;;;4438521;32;20197;-64
2021/11/26 07:48:06;;;;;;;46.10;21.50;;;3.60;99.90;;;;;;4437726;32;20583;-64
2021/11/26 07:50:33;;;;;;;48.03;23.33;;;3.60;99.90;;;;;;4437281;32;20178;-64
2021/11/26 07:53:00;;;;;;;46.27;22.00;;;3.60;99.90;;;;;;4437413;32;20250;-64
2021/11/26 07:55:27;;;;;;;47.07;22.03;;;3.70;99.90;;;;;;4437888;32;20177;-64
2021/11/26 07:57:54;;;;;;;47.33;22.20;;;3.70;99.90;;;;;;4438255;32;20194;-64
2021/11/26 08:00:21;;;;;;;53.07;22.97;;;3.80;99.90;;;;;;4438701;32;20198;-64
2021/11/26 08:02:49;;;;;;;49.63;22.87;;;3.90;99.90;;;;;;4437250;32;20189;-64
2021/11/26 08:05:15;;;;;;;43.03;21.37;;;3.90;99.90;;;;;;4438161;32;20202;-64
2021/11/26 08:07:42;;;;;;;47.57;22.63;;;3.90;99.90;;;;;;4437190;32;20205;-64
2021/11/26 08:10:10;;;;;;;49.43;23.70;;;3.90;99.90;;;;;;4437736;32;20197;-64
2021/11/26 08:12:39;;;;;;;48.93;22.73;;;3.90;99.90;;;;;;4437644;32;20171;-64
2021/11/26 08:15:08;;;;;;;42.57;21.73;;;3.90;99.90;;;;;;4438824;32;20539;-64
2021/11/26 08:17:35;;;;;;;50.83;23.30;;;3.90;99.90;;;;;;4437380;32;20183;-64
2021/11/26 08:20:04;;;;;;;47.80;23.13;;;3.90;99.90;;;;;;4437117;32;20178;-64
2021/11/26 08:22:45;;;;;;;49.77;23.57;;;3.90;99.90;;;;;;4428743;32;20535;-64
2021/11/26 08:25:12;;;;;;;46.10;22.90;;;4.00;99.90;;;;;;4439472;32;20547;-64
2021/11/26 08:27:39;;;;;;;51.73;22.90;;;4.00;99.90;;;;;;4441124;32;20251;-64
2021/11/26 08:30:06;;;;;;;50.40;23.70;;;4.00;99.90;;;;;;4439506;32;20178;-64
2021/11/26 08:32:33;;;;;;;48.27;23.00;;;4.10;99.90;;;;;;4442525;32;20154;-64
2021/11/26 08:35:00;;;;;;;47.77;23.13;;;4.10;99.90;;;;;;4440357;32;20240;-64
2021/11/26 08:37:28;;;;;;;48.20;23.33;;;4.10;99.90;;;;;;4441733;32;20198;-64
2021/11/26 08:39:56;;;;;;;51.90;24.00;;;4.10;99.90;;;;;;4439575;32;20179;-64
2021/11/26 08:42:23;;;;;;;49.13;23.70;;;4.20;99.90;;;;;;4440568;32;20140;-64
2021/11/26 08:44:50;;;;;;;51.90;24.03;;;4.20;99.90;;;;;;4439502;32;20559;-64
2021/11/26 08:47:17;;;;;;;48.73;23.27;;;4.30;99.90;;;;;;4441174;32;20474;-64
2021/11/26 08:49:44;;;;;;;47.77;22.60;;;4.30;99.90;;;;;;4439384;32;20562;-64
2021/11/26 08:52:12;;;;;;;46.20;22.70;;;4.40;99.90;;;;;;4439929;32;20242;-64
2021/11/26 08:54:41;;;;;;;47.47;22.83;;;4.50;99.90;;;;;;4439146;32;20206;-64
2021/11/26 08:57:08;;;;;;;45.80;22.37;;;4.60;99.90;;;;;;4439368;32;20228;-64
2021/11/26 08:59:35;;;;;;;46.47;22.23;;;4.80;99.90;;;;;;4441148;32;20190;-64
2021/11/26 09:02:03;;;;;;;45.37;21.83;;;4.90;99.90;;;;;;4440452;32;20255;-64
2021/11/26 09:04:30;;;;;;;45.90;22.23;;;5.00;99.90;;;;;;4441173;32;20176;-64
2021/11/26 09:06:57;;;;;;;47.17;22.50;;;5.00;99.90;;;;;;4439270;32;20243;-64
2021/11/26 09:09:24;;;;;;;44.87;21.63;;;5.00;99.90;;;;;;4439140;32;20207;-64
2021/11/26 09:11:52;;;;;;;47.73;22.30;;;5.00;99.90;;;;;;4440055;32;20182;-64
2021/11/26 09:14:20;;;;;;;42.00;21.23;;;4.90;99.90;;;;;;4439882;32;20495;-64
2021/11/26 09:16:47;;;;;;;44.47;20.50;;;4.80;99.90;;;;;;4440056;32;20190;-64
2021/11/26 09:19:14;;;;;;;44.53;20.77;;;4.70;99.90;;;;;;4440401;32;20156;-64
2021/11/26 09:21:42;;;;;;;44.73;21.53;;;4.70;99.90;;;;;;4439510;32;20201;-64
2021/11/26 09:24:09;;;;;;;47.43;22.13;;;4.60;99.90;;;;;;4439646;32;20571;-64
2021/11/26 09:26:38;;;;;;;43.17;21.00;;;4.60;99.90;;;;;;4440496;32;20458;-64
2021/11/26 09:29:06;;;;;;;43.37;21.30;;;4.60;99.90;;;;;;4438674;32;20178;-64
2021/11/26 09:31:33;;;;;;;41.90;20.70;;;4.60;99.90;;;;;;4439556;32;20186;-64
2021/11/26 09:34:02;;;;;;;42.53;20.60;;;4.70;99.90;;;;;;4440147;32;20210;-64
2021/11/26 09:36:32;;;;;;;41.47;20.33;;;4.80;99.90;;;;;;4438903;32;20226;-64
2021/11/26 09:39:00;;;;;;;43.00;20.67;;;4.80;99.90;;;;;;4439497;32;20454;-64
2021/11/26 09:41:27;;;;;;;42.23;20.83;;;4.70;99.90;;;;;;4439019;32;20167;-64
2021/11/26 09:44:03;;;;;;;42.40;20.00;;;4.70;99.90;;;;;;4430048;32;20167;-64
2021/11/26 09:46:35;;;;;;;47.00;21.60;;;4.60;99.90;;;;;;4422645;32;20203;-64
2021/11/26 09:49:03;;;;;;;46.27;21.23;;;4.50;99.90;;;;;;4426098;32;20194;-64
2021/11/26 09:51:30;;;;;;;43.67;21.00;;;4.60;99.90;;;;;;4423694;32;20203;-64
2021/11/26 09:53:57;;;;;;;44.37;20.73;;;4.60;99.90;;;;;;4423398;32;20241;-64
2021/11/26 09:56:25;;;;;;;44.17;21.20;;;4.70;99.90;;;;;;4422825;32;20228;-64
2021/11/26 09:58:52;;;;;;;45.70;21.17;;;4.70;99.90;;;;;;4422924;32;20437;-64
2021/11/26 10:01:19;;;;;;;45.23;22.03;;;4.70;99.90;;;;;;4424077;32;20168;-64
2021/11/26 10:03:49;;;;;;;45.27;22.23;;;4.70;99.90;;;;;;4422860;32;20167;-64
2021/11/26 10:06:37;;;;;;;46.00;22.37;;;4.80;99.90;;;;;;4424201;32;20430;-64
2021/11/26 10:09:05;;;;;;;44.27;20.83;;;4.90;99.90;;;;;;4423416;32;20552;-64
2021/11/26 10:11:38;;;;;;;44.40;21.00;;;4.90;99.90;;;;;;4423011;32;20183;-64
2021/11/26 10:14:26;;;;;;;43.67;20.40;;;5.00;99.90;;;;;;4432746;32;20194;-64
2021/11/26 10:17:15;;;;;;;45.77;21.03;;;5.00;99.90;;;;;;4438328;32;20288;-64
2021/11/26 10:19:46;;;;;;;47.20;20.80;;;5.10;99.90;;;;;;4438913;32;20182;-64
2021/11/26 10:22:13;;;;;;;44.53;21.17;;;5.20;99.90;;;;;;4437691;32;20287;-64
2021/11/26 10:24:41;;;;;;;43.37;21.33;;;5.30;99.90;;;;;;4439496;32;20271;-64
2021/11/26 10:27:08;;;;;;;43.37;21.20;;;5.40;99.90;;;;;;4438167;32;20288;-64
2021/11/26 10:29:38;;;;;;;41.83;20.77;;;5.40;99.90;;;;;;4440221;32;20170;-64
2021/11/26 10:32:12;;;;;;;39.27;20.30;;;5.30;99.90;;;;;;4438892;32;20152;-64
2021/11/26 10:34:41;;;;;;;43.00;20.70;;;5.20;99.90;;;;;;4440192;32;20336;-65
2021/11/26 10:37:23;;;;;;;38.20;19.70;;;5.20;99.90;;;;;;4436699;32;20183;-64
2021/11/26 10:39:50;;;;;;;38.00;19.50;;;5.20;99.90;;;;;;4437371;32;20424;-64
2021/11/26 10:42:27;;;;;;;37.43;19.83;;;5.30;99.90;;;;;;4438306;32;20173;-64
2021/11/26 10:44:58;;;;;;;38.33;19.30;;;5.30;99.90;;;;;;4437617;32;20396;-64
2021/11/26 10:47:44;;;;;;;38.37;20.60;;;5.30;99.90;;;;;;4440528;32;20169;-64
2021/11/26 10:50:44;;;;;;;38.20;19.17;;;5.30;99.90;;;;;;4438555;32;20219;-64
2021/11/26 10:58:54;;;;;;;41.97;20.90;;;5.50;99.90;;;;;;4437902;32;20191;-64
2021/11/26 11:01:21;;;;;;;40.80;20.60;;;5.50;99.90;;;;;;4439985;32;20489;-64
2021/11/26 11:03:51;;;;;;;44.73;21.67;;;5.50;99.90;;;;;;4439461;32;20200;-64
2021/11/26 11:06:25;;;;;;;41.00;20.90;;;5.60;99.90;;;;;;4437703;32;20176;-65
2021/11/26 11:09:04;;;;;;;40.33;21.10;;;5.60;99.90;;;;;;4425087;32;20271;-64
2021/11/26 11:11:32;;;;;;;41.60;20.80;;;5.60;99.90;;;;;;4439137;32;20505;-64
2021/11/26 11:14:01;;;;;;;46.80;22.47;;;5.70;99.90;;;;;;4438016;32;20166;-64
2021/11/26 11:16:30;;;;;;;46.00;22.17;;;5.70;99.90;;;;;;4437549;32;20190;-64
2021/11/26 11:18:58;;;;;;;44.13;22.37;;;5.70;99.90;;;;;;4438124;32;20190;-64
2021/11/26 11:21:25;;;;;;;45.43;21.73;;;5.70;99.90;;;;;;4438060;32;20244;-64
2021/11/26 11:23:52;;;;;;;46.67;21.97;;;5.60;99.90;;;;;;4437832;32;20238;-64
2021/11/26 11:26:19;;;;;;;47.70;21.67;;;5.60;99.90;;;;;;4439470;32;20186;-64
2021/11/26 11:28:47;;;;;;;42.20;21.80;;;5.50;99.90;;;;;;4438923;32;20141;-64
2021/11/26 11:31:14;;;;;;;43.70;21.27;;;5.50;99.90;;;;;;4437529;32;20188;-64
2021/11/26 11:33:41;;;;;;;47.07;22.70;;;5.60;99.90;;;;;;4439423;32;20158;-64
2021/11/26 11:36:09;;;;;;;47.90;22.27;;;5.50;99.90;;;;;;4435020;32;20232;-64
2021/11/26 11:38:38;;;;;;;45.20;21.77;;;5.60;99.90;;;;;;4423386;32;20174;-64
2021/11/26 11:41:08;;;;;;;44.60;22.23;;;5.60;99.90;;;;;;4423029;32;20172;-64
2021/11/26 11:43:47;;;;;;;47.43;23.17;;;5.50;99.90;;;;;;4422934;32;20181;-64
2021/11/26 11:46:15;;;;;;;45.97;22.77;;;5.50;99.90;;;;;;4421567;32;20202;-65
2021/11/26 11:48:49;;;;;;;49.03;23.27;;;5.50;99.90;;;;;;4421710;32;20536;-64
2021/11/26 11:51:28;;;;;;;47.57;23.40;;;5.50;99.90;;;;;;4421690;32;20235;-64
2021/11/26 11:54:09;;;;;;;53.87;23.57;;;5.50;99.90;;;;;;4422811;32;20164;-64
2021/11/26 11:56:51;;;;;;;49.77;23.37;;;5.40;99.90;;;;;;4424539;32;20194;-64
2021/11/26 11:59:31;;;;;;;45.07;22.37;;;5.40;99.90;;;;;;4425338;32;20203;-64
2021/11/26 12:02:00;;;;;;;46.67;22.73;;;5.50;99.90;;;;;;4424887;32;20199;-64
2021/11/26 12:04:37;;;;;;;47.87;22.50;;;5.50;99.90;;;;;;4425021;32;20202;-64
2021/11/26 12:07:04;;;;;;;48.33;23.13;;;5.50;99.90;;;;;;4424409;32;20223;-64
2021/11/26 12:09:33;;;;;;;46.63;23.30;;;5.60;99.90;;;;;;4427018;32;20208;-65
2021/11/26 12:12:12;;;;;;;45.40;22.17;;;5.60;99.90;;;;;;4424189;32;20164;-65
2021/11/26 12:14:53;;;;;;;45.83;22.03;;;5.60;99.90;;;;;;4426036;32;20225;-64
2021/11/26 12:17:38;;;;;;;43.43;22.00;;;5.50;99.90;;;;;;4426109;32;20240;-64
2021/11/26 12:20:10;;;;;;;45.93;22.17;;;5.40;99.90;;;;;;4424418;32;20530;-64
2021/11/26 12:22:47;;;;;;;46.60;22.30;;;5.40;99.90;;;;;;4423986;32;20235;-64
2021/11/26 12:25:28;;;;;;;47.37;21.27;;;5.40;99.90;;;;;;4424090;32;20529;-64
2021/11/26 12:27:58;;;;;;;40.90;21.30;;;5.40;99.90;;;;;;4426262;32;20179;-65
2021/11/26 12:30:25;;;;;;;39.70;21.03;;;5.30;99.90;;;;;;4425875;32;20227;-64
2021/11/26 12:32:53;;;;;;;44.80;21.53;;;5.30;99.90;;;;;;4424786;32;20167;-64
2021/11/26 12:35:20;;;;;;;43.47;20.90;;;5.20;99.90;;;;;;4424434;32;20180;-64
2021/11/26 12:37:59;;;;;;;43.50;21.63;;;5.20;99.90;;;;;;4423684;32;20215;-64
2021/11/26 12:40:29;;;;;;;41.63;20.50;;;5.30;99.90;;;;;;4424306;32;20198;-64
2021/11/26 12:43:02;;;;;;;44.00;21.47;;;5.30;99.90;;;;;;4424248;32;20223;-64
2021/11/26 12:45:35;;;;;;;42.97;20.77;;;5.20;99.90;;;;;;4425211;32;20187;-64
2021/11/26 12:48:10;;;;;;;39.63;20.73;;;5.20;99.90;;;;;;4425437;32;20229;-64
2021/11/26 12:53:25;;;;;;;40.90;20.33;;;5.10;99.90;;;;;;4424355;32;20542;-64
2021/11/26 12:55:53;;;;;;;44.20;21.30;;;5.00;99.90;;;;;;4423811;32;20170;-64